Time;durP1;ratioP1;P1;durP2;ratioP2;P2;SDS_P1;SDS_P2;PMS_P1;PMS_P2;Temp;Humidity;BMP_temperature;BMP_pressure;BME280_temperature;BME280_humidity;BME280_pressure;Samples;Min_cycle;Max_cycle;Signal;HPM_P1;HPM_P2
2021/08/25 00:01:45;;;;;;;14.70;13.13;;;14.40;99.90;;;;;;5093966;28;20031;-70
2021/08/25 00:04:11;;;;;;;17.48;13.77;;;14.40;99.90;;;;;;5081443;28;20028;-71
2021/08/25 00:06:37;;;;;;;16.23;12.75;;;14.30;99.90;;;;;;5072841;28;20367;-73
2021/08/25 00:09:03;;;;;;;14.63;13.13;;;14.30;99.90;;;;;;5073528;28;20027;-70
2021/08/25 00:11:29;;;;;;;16.33;14.05;;;14.30;99.90;;;;;;5073249;28;20024;-71
2021/08/25 00:13:55;;;;;;;15.80;13.93;;;14.30;99.90;;;;;;5073127;28;20027;-72
2021/08/25 00:16:20;;;;;;;15.50;13.75;;;14.30;99.90;;;;;;5072748;28;20074;-71
2021/08/25 00:18:46;;;;;;;17.00;13.98;;;14.20;99.90;;;;;;5073044;28;20020;-70
2021/08/25 00:21:12;;;;;;;16.13;14.23;;;14.20;99.90;;;;;;5072992;28;20031;-72
2021/08/25 00:23:38;;;;;;;17.77;14.02;;;14.20;99.90;;;;;;5073135;28;20034;-72
2021/08/25 00:26:03;;;;;;;17.55;14.05;;;14.10;99.90;;;;;;5072990;28;20112;-71
2021/08/25 00:28:29;;;;;;;15.77;14.18;;;14.10;99.90;;;;;;5073764;28;20016;-72
2021/08/25 00:30:55;;;;;;;18.08;15.27;;;14.10;99.90;;;;;;5073609;28;20027;-72
2021/08/25 00:33:21;;;;;;;16.38;14.70;;;14.00;99.90;;;;;;5072662;28;20040;-71
2021/08/25 00:35:46;;;;;;;17.60;15.60;;;14.00;99.90;;;;;;5072237;28;20062;-71
2021/08/25 00:38:12;;;;;;;17.85;15.85;;;14.00;99.90;;;;;;5055084;28;20085;-71
2021/08/25 00:40:38;;;;;;;18.42;16.10;;;14.00;99.90;;;;;;5072873;28;20465;-71
2021/08/25 00:43:08;;;;;;;22.83;16.25;;;13.90;99.90;;;;;;5072788;28;20509;-71
2021/08/25 00:45:37;;;;;;;19.30;15.25;;;13.80;99.90;;;;;;5072102;28;20060;-71
2021/08/25 00:48:04;;;;;;;20.75;15.85;;;13.80;99.90;;;;;;5072253;28;20075;-71
2021/08/25 00:50:30;;;;;;;17.88;15.05;;;13.70;99.90;;;;;;5071763;28;20056;-71
2021/08/25 00:52:56;;;;;;;19.25;14.48;;;13.60;99.90;;;;;;5072170;28;20071;-71
2021/08/25 00:55:22;;;;;;;17.98;14.45;;;13.60;99.90;;;;;;5071991;28;20459;-71
2021/08/25 00:57:48;;;;;;;17.98;14.55;;;13.60;99.90;;;;;;5072445;28;20029;-71
2021/08/25 01:00:14;;;;;;;19.15;14.68;;;13.50;99.90;;;;;;5072529;28;20039;-71
2021/08/25 01:03:15;;;;;;;17.02;14.75;;;13.50;99.90;;;;;;5072197;28;20419;-71
2021/08/25 01:05:42;;;;;;;19.63;15.25;;;13.50;99.90;;;;;;5053093;28;20098;-71
2021/08/25 01:08:11;;;;;;;20.13;15.88;;;13.50;99.90;;;;;;5072387;28;20111;-72
2021/08/25 01:10:38;;;;;;;18.17;15.63;;;13.40;99.90;;;;;;5072451;28;20028;-71
2021/08/25 01:13:06;;;;;;;16.42;14.70;;;13.40;99.90;;;;;;5072583;28;20063;-71
2021/08/25 01:15:34;;;;;;;17.50;14.88;;;13.40;99.90;;;;;;5071573;28;20123;-71
2021/08/25 01:18:05;;;;;;;16.80;14.75;;;13.30;99.90;;;;;;5054163;28;20021;-71
2021/08/25 01:20:33;;;;;;;18.30;14.65;;;13.30;99.90;;;;;;5072337;28;20086;-71
2021/08/25 01:22:59;;;;;;;19.65;14.95;;;13.40;99.90;;;;;;5071830;28;20050;-71
2021/08/25 01:25:26;;;;;;;16.83;15.02;;;13.40;99.90;;;;;;5071360;28;20047;-71
2021/08/25 01:27:58;;;;;;;17.52;14.38;;;13.40;99.90;;;;;;5071680;28;20054;-72
2021/08/25 01:30:26;;;;;;;16.53;13.77;;;13.40;99.90;;;;;;5071893;28;20039;-72
2021/08/25 01:32:51;;;;;;;17.40;14.82;;;13.40;99.90;;;;;;5071349;28;20092;-71
2021/08/25 01:35:17;;;;;;;23.23;14.93;;;13.40;99.90;;;;;;5071114;28;20447;-71
2021/08/25 01:37:44;;;;;;;16.92;14.20;;;13.40;99.90;;;;;;5071848;28;20027;-71
2021/08/25 01:40:10;;;;;;;16.10;13.40;;;13.40;99.90;;;;;;5071715;28;20017;-71
2021/08/25 01:42:35;;;;;;;15.95;14.00;;;13.40;99.90;;;;;;5071687;28;20032;-71
2021/08/25 01:45:01;;;;;;;16.15;13.18;;;13.30;99.90;;;;;;5071111;28;20032;-71
2021/08/25 01:47:27;;;;;;;20.63;13.55;;;13.30;99.90;;;;;;5071757;28;20028;-71
2021/08/25 01:49:53;;;;;;;19.05;13.95;;;13.30;99.90;;;;;;5071416;28;20374;-71
2021/08/25 01:52:20;;;;;;;18.40;13.85;;;13.30;99.90;;;;;;5071634;28;20024;-70
2021/08/25 01:54:46;;;;;;;16.98;13.90;;;13.30;99.90;;;;;;5071085;28;20035;-71
2021/08/25 01:57:12;;;;;;;17.05;14.43;;;13.20;99.90;;;;;;5071480;28;20025;-72
2021/08/25 01:59:38;;;;;;;14.45;12.95;;;13.20;99.90;;;;;;5071543;28;20025;-72
2021/08/25 02:02:04;;;;;;;18.00;13.05;;;13.20;99.90;;;;;;5071667;28;20100;-72
2021/08/25 02:04:31;;;;;;;16.33;13.93;;;13.10;99.90;;;;;;5069382;28;20016;-71
2021/08/25 02:06:56;;;;;;;16.42;13.90;;;13.10;99.90;;;;;;5071332;28;20024;-71
2021/08/25 02:09:22;;;;;;;14.40;12.73;;;13.10;99.90;;;;;;5071244;28;20384;-71
2021/08/25 02:11:49;;;;;;;15.20;13.57;;;13.00;99.90;;;;;;5071414;28;20031;-72
2021/08/25 02:14:15;;;;;;;15.05;13.18;;;13.00;99.90;;;;;;5070729;28;20517;-72
2021/08/25 02:16:41;;;;;;;16.13;13.95;;;13.00;99.90;;;;;;5071022;28;20108;-70
2021/08/25 02:19:07;;;;;;;17.52;15.40;;;13.10;99.90;;;;;;5071036;28;20100;-71
2021/08/25 02:21:33;;;;;;;17.90;14.75;;;13.00;99.90;;;;;;5070351;28;20024;-72
2021/08/25 02:23:59;;;;;;;16.13;14.43;;;13.00;99.90;;;;;;5071170;28;20420;-72
2021/08/25 02:26:25;;;;;;;18.05;14.93;;;12.90;99.90;;;;;;5070438;28;20040;-72
2021/08/25 02:28:52;;;;;;;19.13;14.25;;;12.90;99.90;;;;;;5071053;28;20025;-71
2021/08/25 02:31:19;;;;;;;17.77;14.52;;;12.80;99.90;;;;;;5071212;28;20025;-71
2021/08/25 02:33:45;;;;;;;19.10;15.40;;;12.80;99.90;;;;;;5071018;28;20109;-72
2021/08/25 02:36:12;;;;;;;17.55;14.20;;;12.70;99.90;;;;;;5070266;28;20067;-71
2021/08/25 02:38:38;;;;;;;16.83;13.98;;;12.70;99.90;;;;;;5070869;28;20081;-71
2021/08/25 02:41:08;;;;;;;18.30;14.85;;;12.60;99.90;;;;;;5071142;28;20033;-71
2021/08/25 02:43:34;;;;;;;19.25;14.02;;;12.60;99.90;;;;;;5053342;28;20394;-71
2021/08/25 02:46:00;;;;;;;16.17;14.43;;;12.60;99.90;;;;;;5070284;28;20564;-71
2021/08/25 02:48:26;;;;;;;17.20;15.32;;;12.60;99.90;;;;;;5069935;28;20544;-71
2021/08/25 02:50:52;;;;;;;17.05;14.98;;;12.50;99.90;;;;;;5071787;28;20028;-70
2021/08/25 02:53:18;;;;;;;17.15;14.30;;;12.50;99.90;;;;;;5053370;28;20102;-70
2021/08/25 02:55:47;;;;;;;19.08;14.75;;;12.40;99.90;;;;;;5051882;28;20016;-72
2021/08/25 02:58:13;;;;;;;17.90;15.43;;;12.40;99.90;;;;;;5071239;28;20027;-71
2021/08/25 03:00:39;;;;;;;19.27;14.90;;;12.40;99.90;;;;;;5071489;28;20031;-71
2021/08/25 03:03:05;;;;;;;18.48;14.70;;;12.30;99.90;;;;;;5070251;28;20020;-71
2021/08/25 03:05:31;;;;;;;16.90;15.13;;;12.40;99.90;;;;;;5070702;28;20104;-71
2021/08/25 03:07:56;;;;;;;18.50;15.13;;;12.40;99.90;;;;;;5071007;28;20082;-70
2021/08/25 03:10:22;;;;;;;19.98;15.50;;;12.40;99.90;;;;;;5071164;28;20025;-74
2021/08/25 03:12:48;;;;;;;17.98;15.30;;;12.30;99.90;;;;;;5071105;28;20108;-71
2021/08/25 03:15:13;;;;;;;20.52;15.25;;;12.30;99.90;;;;;;5070427;28;20025;-71
2021/08/25 03:17:39;;;;;;;19.17;14.63;;;12.20;99.90;;;;;;5070885;28;20033;-71
2021/08/25 03:20:08;;;;;;;16.55;14.57;;;12.30;99.90;;;;;;5070935;28;20438;-71
2021/08/25 03:22:35;;;;;;;19.65;15.55;;;12.20;99.90;;;;;;5070500;28;20035;-72
2021/08/25 03:25:02;;;;;;;20.05;14.95;;;12.30;99.90;;;;;;5069763;28;20017;-71
2021/08/25 03:27:28;;;;;;;18.33;14.75;;;12.20;99.90;;;;;;5070709;28;20029;-72
2021/08/25 03:29:53;;;;;;;21.45;14.32;;;12.30;99.90;;;;;;5074081;28;20051;-71
2021/08/25 03:32:20;;;;;;;16.90;15.10;;;12.30;99.90;;;;;;5073932;28;20048;-71
2021/08/25 03:34:46;;;;;;;19.05;15.30;;;12.30;99.90;;;;;;5073387;28;20071;-71
2021/08/25 03:37:11;;;;;;;18.67;14.38;;;12.20;99.90;;;;;;5074000;28;20119;-71
2021/08/25 03:39:37;;;;;;;15.77;14.07;;;12.20;99.90;;;;;;5073939;28;20074;-71
2021/08/25 03:42:03;;;;;;;19.30;15.50;;;12.20;99.90;;;;;;5074113;28;20024;-71
2021/08/25 03:44:29;;;;;;;20.58;15.50;;;12.20;99.90;;;;;;5073239;28;20410;-72
2021/08/25 03:46:54;;;;;;;22.20;14.77;;;12.20;99.90;;;;;;5073568;28;20056;-72
2021/08/25 03:49:20;;;;;;;19.30;15.25;;;12.20;99.90;;;;;;5073765;28;20540;-71
2021/08/25 03:51:46;;;;;;;18.48;15.70;;;12.10;99.90;;;;;;5073739;28;20020;-72
2021/08/25 03:54:11;;;;;;;18.98;14.38;;;12.10;99.90;;;;;;5073771;28;20082;-72
2021/08/25 03:56:37;;;;;;;20.10;15.57;;;12.10;99.90;;;;;;5071256;28;20027;-72
2021/08/25 03:59:03;;;;;;;21.55;17.67;;;12.10;99.90;;;;;;5073655;28;20039;-69
2021/08/25 04:01:30;;;;;;;19.80;17.17;;;12.20;99.90;;;;;;5073349;28;20028;-73
2021/08/25 04:03:55;;;;;;;22.40;15.13;;;12.10;99.90;;;;;;5073489;28;20028;-70
2021/08/25 04:06:21;;;;;;;19.50;15.25;;;12.10;99.90;;;;;;5072852;28;20028;-70
2021/08/25 04:08:47;;;;;;;19.63;15.55;;;12.10;99.90;;;;;;5072360;28;20036;-73
2021/08/25 04:11:20;;;;;;;22.90;18.10;;;12.10;99.90;;;;;;5064365;28;20017;-72
2021/08/25 04:13:45;;;;;;;23.40;17.08;;;12.00;99.90;;;;;;5072421;28;20023;-72
2021/08/25 04:16:11;;;;;;;21.40;16.30;;;12.00;99.90;;;;;;5072070;28;20099;-72
2021/08/25 04:18:37;;;;;;;20.25;15.98;;;12.00;99.90;;;;;;5073143;28;20055;-72
2021/08/25 04:21:03;;;;;;;18.67;15.45;;;12.00;99.90;;;;;;5072932;28;20071;-71
2021/08/25 04:23:28;;;;;;;23.33;16.63;;;12.00;99.90;;;;;;5072363;28;20033;-69
2021/08/25 04:25:54;;;;;;;20.55;16.75;;;11.90;99.90;;;;;;5072386;28;20028;-69
2021/08/25 04:28:20;;;;;;;20.00;15.88;;;11.90;99.90;;;;;;5072783;28;20020;-72
2021/08/25 04:30:46;;;;;;;18.88;15.68;;;11.90;99.90;;;;;;5072863;28;20497;-73
2021/08/25 04:33:11;;;;;;;21.13;15.90;;;12.00;99.90;;;;;;5072005;28;20032;-70
2021/08/25 04:35:37;;;;;;;21.73;16.42;;;12.00;99.90;;;;;;5072347;28;20153;-69
2021/08/25 04:38:02;;;;;;;23.55;16.45;;;11.90;99.90;;;;;;5072556;28;20434;-71
2021/08/25 04:40:28;;;;;;;19.55;15.90;;;12.00;99.90;;;;;;5071555;28;20106;-71
2021/08/25 04:42:54;;;;;;;20.98;16.92;;;12.00;99.90;;;;;;5072184;28;20024;-71
2021/08/25 04:45:20;;;;;;;22.83;16.73;;;12.00;99.90;;;;;;5071824;28;20482;-71
2021/08/25 04:47:45;;;;;;;22.58;16.30;;;12.10;99.90;;;;;;5071820;28;20017;-71
2021/08/25 04:50:11;;;;;;;23.08;18.20;;;12.10;99.90;;;;;;5072485;28;20032;-71
2021/08/25 04:52:37;;;;;;;23.15;18.05;;;12.10;99.90;;;;;;5071422;28;20478;-71
2021/08/25 04:55:03;;;;;;;25.13;18.92;;;12.00;99.90;;;;;;5071658;28;20025;-72
2021/08/25 04:57:28;;;;;;;27.30;18.70;;;12.00;99.90;;;;;;5072395;28;20020;-71
2021/08/25 04:59:54;;;;;;;26.40;18.98;;;11.90;99.90;;;;;;5054470;28;20028;-71
2021/08/25 05:02:19;;;;;;;27.60;18.92;;;11.90;99.90;;;;;;5071802;28;20508;-70
2021/08/25 05:04:47;;;;;;;24.77;19.23;;;11.90;99.90;;;;;;5071831;28;20024;-72
2021/08/25 05:07:13;;;;;;;31.95;19.83;;;11.90;99.90;;;;;;5072354;28;20032;-74
2021/08/25 05:09:39;;;;;;;32.22;23.63;;;12.00;99.90;;;;;;5073613;28;20378;-76
2021/08/25 05:12:05;;;;;;;30.08;20.90;;;12.30;99.90;;;;;;5071631;28;20021;-76
2021/08/25 05:14:31;;;;;;;22.63;16.80;;;12.60;99.90;;;;;;5071461;28;20036;-76
2021/08/25 05:16:56;;;;;;;23.10;17.63;;;12.70;99.90;;;;;;5072018;28;20024;-76
2021/08/25 05:19:22;;;;;;;20.80;14.60;;;13.20;99.90;;;;;;5072599;28;20025;-76
2021/08/25 05:21:48;;;;;;;18.42;14.27;;;13.80;99.90;;;;;;5071354;28;20116;-75
2021/08/25 05:24:13;;;;;;;15.80;14.00;;;13.70;99.90;;;;;;5072148;28;20134;-75
2021/08/25 05:26:39;;;;;;;14.85;12.73;;;13.80;99.90;;;;;;5071849;28;20174;-75
2021/08/25 05:29:05;;;;;;;17.60;12.45;;;13.80;99.90;;;;;;5072240;28;20040;-72
2021/08/25 05:31:31;;;;;;;14.70;13.13;;;13.70;99.90;;;;;;5071963;28;20021;-71
2021/08/25 05:33:58;;;;;;;20.33;13.63;;;13.20;99.90;;;;;;5071412;28;20062;-71
2021/08/25 05:36:24;;;;;;;18.40;13.93;;;13.00;99.90;;;;;;5139324;23;20160;-72
2021/08/25 05:38:50;;;;;;;16.17;13.30;;;12.80;99.90;;;;;;5051997;28;20463;-72
2021/08/25 05:41:16;;;;;;;18.73;13.57;;;12.70;99.90;;;;;;5051453;28;20035;-73
2021/08/25 05:43:41;;;;;;;16.60;13.80;;;12.60;99.90;;;;;;5051630;28;20043;-72
2021/08/25 05:46:07;;;;;;;17.25;13.93;;;12.50;99.90;;;;;;5061580;28;20048;-72
2021/08/25 05:48:33;;;;;;;16.83;14.48;;;12.60;99.90;;;;;;5071672;28;20429;-75
2021/08/25 05:50:58;;;;;;;17.45;13.70;;;12.60;99.90;;;;;;5070840;28;20107;-73
2021/08/25 05:53:25;;;;;;;20.27;14.63;;;12.70;99.90;;;;;;5071577;28;20099;-73
2021/08/25 05:55:50;;;;;;;16.40;13.65;;;12.80;99.90;;;;;;5071036;28;20032;-74
2021/08/25 05:58:16;;;;;;;16.23;13.38;;;12.70;99.90;;;;;;5044114;28;20021;-72
2021/08/25 06:00:42;;;;;;;17.45;13.68;;;12.80;99.90;;;;;;5046117;28;20044;-72
2021/08/25 06:03:08;;;;;;;14.30;12.80;;;12.80;99.90;;;;;;5051077;28;20025;-72
2021/08/25 06:05:33;;;;;;;15.25;13.20;;;12.90;99.90;;;;;;5061767;28;20031;-73
2021/08/25 06:07:59;;;;;;;13.57;11.40;;;13.00;99.90;;;;;;5056131;28;20025;-71
2021/08/25 06:10:25;;;;;;;15.93;12.63;;;13.00;99.90;;;;;;5050770;28;20074;-72
2021/08/25 06:12:50;;;;;;;15.73;11.38;;;13.10;99.90;;;;;;5051276;28;20644;-74
2021/08/25 06:15:16;;;;;;;16.08;11.77;;;13.20;99.90;;;;;;5054380;28;20028;-73
2021/08/25 06:17:42;;;;;;;17.30;11.85;;;13.20;99.90;;;;;;5063310;28;20070;-71
2021/08/25 06:20:08;;;;;;;12.73;10.32;;;13.40;99.90;;;;;;5070567;28;20028;-72
2021/08/25 06:22:34;;;;;;;15.10;10.32;;;13.50;99.90;;;;;;5070976;28;20036;-71
2021/08/25 06:25:00;;;;;;;12.60;9.55;;;13.60;99.90;;;;;;5071001;28;20039;-72
2021/08/25 06:27:25;;;;;;;14.30;10.48;;;13.70;99.90;;;;;;5070666;28;20036;-72
2021/08/25 06:29:51;;;;;;;12.77;10.20;;;13.80;99.90;;;;;;5070704;28;20116;-71
2021/08/25 06:32:18;;;;;;;11.05;9.50;;;13.90;99.90;;;;;;5053361;28;20028;-70
2021/08/25 06:34:43;;;;;;;11.77;9.55;;;14.00;99.90;;;;;;5034804;28;20036;-72
2021/08/25 06:37:09;;;;;;;14.07;9.82;;;14.00;99.90;;;;;;5050898;28;20029;-71
2021/08/25 06:39:35;;;;;;;10.90;9.32;;;14.10;99.90;;;;;;5051421;28;20283;-71
2021/08/25 06:42:01;;;;;;;10.30;8.90;;;14.10;99.90;;;;;;5051352;28;20490;-71
2021/08/25 06:44:26;;;;;;;12.43;8.40;;;14.20;99.90;;;;;;5050321;28;20025;-72
2021/08/25 06:46:52;;;;;;;12.98;8.88;;;14.30;99.90;;;;;;5051208;28;20025;-73
2021/08/25 06:49:18;;;;;;;10.15;8.30;;;14.30;99.90;;;;;;5061780;28;20020;-73
2021/08/25 06:51:44;;;;;;;10.88;8.48;;;14.30;99.90;;;;;;5055443;28;20044;-74
2021/08/25 06:54:10;;;;;;;10.73;8.23;;;14.40;99.90;;;;;;5071401;28;20024;-71
2021/08/25 06:56:35;;;;;;;10.93;8.27;;;14.50;99.90;;;;;;5070480;28;20036;-72
2021/08/25 06:59:01;;;;;;;9.18;8.27;;;14.60;99.90;;;;;;5077420;28;20039;-71
2021/08/25 07:01:27;;;;;;;11.43;7.93;;;14.70;99.90;;;;;;5079118;28;20028;-72
2021/08/25 07:03:52;;;;;;;10.10;8.18;;;14.80;99.90;;;;;;5072931;28;20528;-73
2021/08/25 07:06:21;;;;;;;8.93;8.02;;;14.90;99.90;;;;;;5072773;28;20094;-74
2021/08/25 07:08:47;;;;;;;11.57;7.22;;;14.90;99.90;;;;;;5074542;28;20107;-73
2021/08/25 07:11:13;;;;;;;8.73;6.65;;;15.00;99.90;;;;;;5074612;28;20101;-73
2021/08/25 07:13:39;;;;;;;9.75;7.22;;;15.10;99.90;;;;;;5056478;28;20379;-73
2021/08/25 07:16:07;;;;;;;9.27;7.10;;;15.30;99.90;;;;;;5073803;28;20031;-73
2021/08/25 07:18:33;;;;;;;9.93;7.18;;;15.40;99.90;;;;;;5074720;28;20078;-73
2021/08/25 07:20:59;;;;;;;7.22;6.43;;;15.40;99.90;;;;;;5054251;28;20027;-73
2021/08/25 07:23:25;;;;;;;10.13;7.15;;;15.50;99.90;;;;;;5054290;28;20100;-73
2021/08/25 07:25:51;;;;;;;7.43;5.63;;;15.70;99.90;;;;;;5053555;28;20062;-73
2021/08/25 07:28:16;;;;;;;8.05;7.25;;;15.80;99.90;;;;;;5054223;28;20443;-73
2021/08/25 07:30:42;;;;;;;8.93;6.22;;;15.90;99.90;;;;;;5055923;28;20029;-73
2021/08/25 07:33:12;;;;;;;7.43;6.00;;;16.00;99.90;;;;;;5056498;28;20023;-73
2021/08/25 07:35:39;;;;;;;8.30;6.43;;;16.20;99.90;;;;;;5055339;28;20477;-72
2021/08/25 07:38:05;;;;;;;6.70;6.00;;;16.20;99.90;;;;;;5074261;28;20444;-73
2021/08/25 07:40:30;;;;;;;6.20;5.63;;;16.30;99.90;;;;;;5074021;28;20111;-73
2021/08/25 07:42:56;;;;;;;6.07;5.47;;;16.20;99.90;;;;;;5074247;28;20028;-73
2021/08/25 07:45:22;;;;;;;6.18;5.18;;;16.40;99.90;;;;;;5073280;28;20025;-73
2021/08/25 07:47:47;;;;;;;5.75;5.13;;;16.50;99.90;;;;;;5073825;28;20389;-72
2021/08/25 07:50:14;;;;;;;7.38;5.50;;;16.70;99.90;;;;;;5073949;28;20435;-72
2021/08/25 07:52:40;;;;;;;5.60;4.93;;;16.80;99.90;;;;;;5073712;28;20340;-73
2021/08/25 07:55:06;;;;;;;7.95;5.88;;;17.00;99.90;;;;;;5073063;28;20031;-72
2021/08/25 07:57:31;;;;;;;6.85;5.32;;;17.10;99.90;;;;;;5073739;28;20474;-72
2021/08/25 07:59:57;;;;;;;5.50;5.00;;;17.10;99.90;;;;;;5073277;28;20036;-72
2021/08/25 08:02:23;;;;;;;10.02;4.70;;;17.20;99.90;;;;;;5055736;28;20502;-77
2021/08/25 08:04:48;;;;;;;6.50;4.70;;;17.40;99.90;;;;;;5073667;28;20052;-78
2021/08/25 08:07:14;;;;;;;6.85;4.10;;;17.70;99.90;;;;;;5056726;28;20017;-74
2021/08/25 08:09:40;;;;;;;6.95;4.38;;;18.30;99.90;;;;;;5069102;28;20098;-76
2021/08/25 08:12:07;;;;;;;5.32;4.28;;;18.30;99.90;;;;;;5054065;28;20035;-77
2021/08/25 08:14:33;;;;;;;5.90;4.05;;;18.50;99.90;;;;;;5054095;28;20021;-76
2021/08/25 08:17:01;;;;;;;5.90;4.07;;;19.00;99.90;;;;;;5054646;28;20032;-76
2021/08/25 08:19:30;;;;;;;4.22;3.58;;;19.00;99.90;;;;;;5054127;28;20021;-78
2021/08/25 08:21:57;;;;;;;5.75;4.07;;;19.20;99.90;;;;;;5054059;28;20395;-78
2021/08/25 08:24:23;;;;;;;4.65;3.97;;;19.50;99.90;;;;;;5053252;28;20033;-74
2021/08/25 08:26:48;;;;;;;5.05;4.20;;;19.70;99.90;;;;;;5052931;28;20119;-75
2021/08/25 08:29:15;;;;;;;5.68;4.28;;;19.00;99.90;;;;;;5058576;28;20036;-74
2021/08/25 08:31:41;;;;;;;4.70;3.97;;;19.40;99.90;;;;;;5072958;28;20020;-73
2021/08/25 08:34:07;;;;;;;5.50;4.20;;;19.20;99.90;;;;;;5073078;28;20505;-72
2021/08/25 08:36:33;;;;;;;5.25;3.90;;;19.30;99.90;;;;;;5072022;28;20122;-72
2021/08/25 08:38:58;;;;;;;5.65;3.17;;;19.70;99.90;;;;;;5072710;28;20047;-72
2021/08/25 08:41:25;;;;;;;7.15;3.95;;;20.60;99.90;;;;;;5072811;28;20039;-72
2021/08/25 08:43:51;;;;;;;6.22;3.45;;;20.50;99.90;;;;;;5073188;28;20078;-72
2021/08/25 08:46:19;;;;;;;4.20;3.50;;;20.60;99.90;;;;;;5054662;28;20402;-70
2021/08/25 08:48:47;;;;;;;4.60;3.35;;;21.00;99.90;;;;;;5072594;28;20029;-71
2021/08/25 08:51:17;;;;;;;5.10;3.25;;;21.10;99.90;;;;;;5072687;28;20021;-71
2021/08/25 08:53:43;;;;;;;4.00;3.55;;;21.70;99.90;;;;;;5071538;28;20029;-71
2021/08/25 08:56:08;;;;;;;3.92;3.53;;;22.20;99.90;;;;;;5054098;28;20109;-71
2021/08/25 08:58:38;;;;;;;4.18;3.40;;;21.90;99.90;;;;;;5072440;28;20092;-71
2021/08/25 09:01:04;;;;;;;3.90;3.50;;;21.70;99.90;;;;;;5072341;28;20028;-70
2021/08/25 09:03:34;;;;;;;3.83;3.42;;;21.90;99.90;;;;;;5054228;28;20047;-71
2021/08/25 09:06:01;;;;;;;5.50;3.70;;;22.00;99.90;;;;;;5071491;28;20037;-71
2021/08/25 09:08:32;;;;;;;4.88;3.40;;;22.10;99.90;;;;;;5072532;28;20433;-71
2021/08/25 09:11:19;;;;;;;3.78;3.40;;;22.00;99.90;;;;;;5072098;28;20082;-71
2021/08/25 09:13:50;;;;;;;4.88;3.15;;;21.70;99.90;;;;;;5072284;28;20024;-70
2021/08/25 09:16:32;;;;;;;3.13;2.83;;;22.10;99.90;;;;;;5071378;28;20053;-71
2021/08/25 09:19:05;;;;;;;4.68;3.17;;;22.60;99.90;;;;;;5071976;28;20043;-71
2021/08/25 09:21:43;;;;;;;6.38;3.67;;;22.90;99.90;;;;;;5072368;28;20069;-71
2021/08/25 09:24:10;;;;;;;3.42;3.13;;;23.00;99.90;;;;;;5054242;28;20032;-70
2021/08/25 09:26:58;;;;;;;3.78;3.22;;;23.60;99.90;;;;;;5070684;28;20028;-71
2021/08/25 09:29:23;;;;;;;3.92;3.40;;;22.80;99.90;;;;;;5053639;28;20050;-70
2021/08/25 09:31:50;;;;;;;7.18;3.65;;;22.60;99.90;;;;;;5071603;28;20021;-71
2021/08/25 09:34:28;;;;;;;3.75;3.33;;;23.30;99.90;;;;;;5071632;28;20025;-72
2021/08/25 09:37:19;;;;;;;7.60;3.42;;;22.30;99.90;;;;;;5071357;28;20035;-70
2021/08/25 09:39:49;;;;;;;4.13;3.35;;;22.10;99.90;;;;;;5071312;28;20021;-70
2021/08/25 09:42:17;;;;;;;5.88;3.45;;;22.20;99.90;;;;;;5071817;28;20500;-70
2021/08/25 09:44:45;;;;;;;5.38;3.30;;;22.70;99.90;;;;;;5070471;28;20025;-71
2021/08/25 09:47:10;;;;;;;4.00;3.13;;;23.30;99.90;;;;;;5071585;28;20033;-71
2021/08/25 09:49:37;;;;;;;3.58;3.10;;;23.70;99.90;;;;;;5053502;28;20047;-71
2021/08/25 09:52:04;;;;;;;4.75;3.53;;;22.50;99.90;;;;;;5071479;28;20439;-71
2021/08/25 09:54:29;;;;;;;7.75;3.15;;;22.50;99.90;;;;;;5071121;28;20099;-72
2021/08/25 09:56:55;;;;;;;7.35;3.85;;;22.80;99.90;;;;;;5068076;28;20108;-71
2021/08/25 09:59:22;;;;;;;3.35;2.75;;;23.30;99.90;;;;;;5071295;28;20024;-71
2021/08/25 10:01:49;;;;;;;4.03;3.22;;;24.10;99.90;;;;;;5052395;28;20115;-70
2021/08/25 10:04:16;;;;;;;3.30;3.00;;;24.20;99.90;;;;;;5051677;28;20486;-71
2021/08/25 10:06:49;;;;;;;4.25;3.28;;;24.50;99.10;;;;;;5064511;28;20040;-72
2021/08/25 10:09:16;;;;;;;3.90;3.50;;;25.10;98.90;;;;;;5070677;28;20016;-72
2021/08/25 10:11:52;;;;;;;5.03;3.22;;;25.40;97.20;;;;;;5071687;28;20024;-72
2021/08/25 10:14:18;;;;;;;3.42;2.97;;;25.70;97.40;;;;;;5071374;28;20025;-72
2021/08/25 10:16:49;;;;;;;3.67;3.10;;;25.70;97.30;;;;;;5071678;28;20078;-71
2021/08/25 10:19:38;;;;;;;7.20;3.55;;;25.50;95.90;;;;;;5071451;28;20106;-72
2021/08/25 10:22:24;;;;;;;5.93;2.85;;;26.40;95.60;;;;;;5071562;28;20028;-72
2021/08/25 10:24:53;;;;;;;3.25;2.95;;;25.50;94.60;;;;;;5069509;28;20025;-72
2021/08/25 10:27:19;;;;;;;3.97;3.00;;;25.60;94.50;;;;;;5071400;28;20104;-72
2021/08/25 10:30:03;;;;;;;5.03;2.90;;;26.30;94.40;;;;;;5071148;28;20059;-72
2021/08/25 10:32:53;;;;;;;3.30;2.90;;;25.40;96.20;;;;;;5071576;28;20020;-72
2021/08/25 10:35:18;;;;;;;5.93;2.90;;;25.30;95.50;;;;;;5059594;28;20052;-73
2021/08/25 10:37:46;;;;;;;4.32;3.30;;;26.00;94.70;;;;;;5073274;28;20028;-73
2021/08/25 10:40:12;;;;;;;3.78;3.40;;;26.30;93.00;;;;;;5074613;28;20103;-74
2021/08/25 10:42:55;;;;;;;3.33;3.00;;;27.40;92.00;;;;;;5075529;28;20024;-73
2021/08/25 10:45:39;;;;;;;5.88;2.90;;;26.00;91.60;;;;;;5074466;28;20046;-74
2021/08/25 10:48:09;;;;;;;4.40;2.92;;;25.70;92.50;;;;;;5057572;28;20021;-74
2021/08/25 10:50:55;;;;;;;3.15;2.85;;;27.00;92.20;;;;;;5075347;28;20028;-73
2021/08/25 10:53:30;;;;;;;5.40;3.25;;;26.80;90.70;;;;;;5074502;28;20032;-72
2021/08/25 10:56:04;;;;;;;3.92;3.63;;;26.40;89.70;;;;;;5074743;28;20195;-71
2021/08/25 10:58:48;;;;;;;6.13;3.20;;;25.00;91.50;;;;;;5074569;28;20027;-71
2021/08/25 11:01:41;;;;;;;5.07;3.30;;;24.60;92.30;;;;;;5055296;28;20036;-72
2021/08/25 11:04:17;;;;;;;4.47;3.17;;;25.30;92.40;;;;;;5063197;28;20041;-71
2021/08/25 11:06:49;;;;;;;3.97;3.50;;;25.80;90.20;;;;;;5055100;28;20025;-73
2021/08/25 11:09:20;;;;;;;4.28;2.55;;;26.40;88.50;;;;;;5066094;28;20494;-73
2021/08/25 11:11:52;;;;;;;4.07;3.15;;;27.60;89.90;;;;;;5072855;28;20031;-72
2021/08/25 11:14:23;;;;;;;3.65;3.35;;;28.10;85.80;;;;;;5070453;28;20021;-72
2021/08/25 11:16:50;;;;;;;;;;;27.80;87.40;;;;;;5073911;28;20023;-72
2021/08/25 11:19:30;;;;;;;7.30;3.40;;;27.20;87.00;;;;;;5074596;28;19909;-73
2021/08/25 11:21:58;;;;;;;3.80;3.22;;;27.70;83.70;;;;;;5073285;28;20497;-72
2021/08/25 11:24:30;;;;;;;9.68;3.30;;;28.00;84.50;;;;;;5073752;28;20028;-73
2021/08/25 11:26:56;;;;;;;5.88;3.42;;;28.00;84.60;;;;;;5074398;28;20497;-72
2021/08/25 11:29:23;;;;;;;3.40;3.10;;;27.50;84.70;;;;;;5074488;28;20036;-71
2021/08/25 11:31:50;;;;;;;4.68;3.20;;;27.80;86.30;;;;;;5074224;28;20025;-72
2021/08/25 11:34:17;;;;;;;5.40;3.47;;;27.80;87.80;;;;;;5053399;28;20021;-73
2021/08/25 11:36:53;;;;;;;4.45;2.95;;;27.70;85.60;;;;;;5037618;28;20090;-72
2021/08/25 11:39:18;;;;;;;4.93;3.70;;;27.10;85.70;;;;;;5086090;22;20051;-67
2021/08/25 11:41:45;;;;;;;3.60;3.30;;;27.90;87.10;;;;;;5079599;28;20442;-69
2021/08/25 11:44:11;;;;;;;3.67;3.30;;;27.60;82.30;;;;;;5078425;28;20419;-71
2021/08/25 11:46:36;;;;;;;3.92;3.47;;;27.40;83.70;;;;;;5071752;28;20107;-71
2021/08/25 11:49:02;;;;;;;4.28;3.88;;;27.30;90.30;;;;;;5070777;28;20036;-69
2021/08/25 11:51:28;;;;;;;3.95;3.55;;;27.00;86.90;;;;;;5074042;28;20036;-72
2021/08/25 11:53:54;;;;;;;3.92;3.20;;;25.50;86.70;;;;;;5074528;28;20020;-70
2021/08/25 11:56:19;;;;;;;4.90;3.63;;;25.70;91.20;;;;;;5073315;28;20082;-70
2021/08/25 11:58:45;;;;;;;5.53;3.45;;;26.50;89.60;;;;;;5056610;28;20157;-70
2021/08/25 12:01:24;;;;;;;4.90;3.83;;;26.40;83.40;;;;;;5073541;28;20420;-68
2021/08/25 12:03:50;;;;;;;3.55;3.25;;;25.90;87.10;;;;;;5079550;28;20031;-69
2021/08/25 12:06:21;;;;;;;4.85;3.38;;;26.30;86.60;;;;;;5090583;28;20020;-70
2021/08/25 12:08:51;;;;;;;6.85;4.38;;;26.50;85.20;;;;;;5091187;28;20448;-70
2021/08/25 12:11:19;;;;;;;4.30;3.83;;;26.10;84.90;;;;;;5090937;28;20103;-70
2021/08/25 12:13:46;;;;;;;4.10;3.53;;;26.40;83.80;;;;;;5089492;28;20020;-70
2021/08/25 12:16:23;;;;;;;4.55;3.95;;;27.30;85.40;;;;;;5092158;28;20028;-70
2021/08/25 12:18:58;;;;;;;7.93;4.60;;;27.50;83.60;;;;;;5090715;28;20039;-71
2021/08/25 12:21:29;;;;;;;3.25;2.95;;;27.80;83.50;;;;;;5073197;28;20581;-71
2021/08/25 12:24:04;;;;;;;5.43;3.28;;;28.20;81.70;;;;;;5073091;28;20021;-71
2021/08/25 12:26:32;;;;;;;6.75;4.10;;;28.10;80.30;;;;;;5086115;28;20031;-71
2021/08/25 12:28:59;;;;;;;4.00;3.53;;;25.90;83.40;;;;;;5091853;28;20028;-71
2021/08/25 12:31:28;;;;;;;3.88;3.47;;;26.00;85.20;;;;;;5091767;28;20058;-71
2021/08/25 12:34:06;;;;;;;3.88;3.55;;;26.00;87.30;;;;;;5091394;28;20025;-72
2021/08/25 12:36:37;;;;;;;3.88;3.40;;;27.50;86.10;;;;;;5092526;28;20031;-71
2021/08/25 12:39:06;;;;;;;5.70;3.53;;;28.10;81.30;;;;;;5091923;28;20032;-71